sensor_id;sensor_type;location;lat;lon;timestamp;pressure;altitude;pressure_sealevel;temperature;humidity
64679;BME280;51094;53.864;27.676;2023-02-05T00:01:33;100293.81;;;-1.95;68.72
64679;BME280;51094;53.864;27.676;2023-02-05T00:04:00;100300.59;;;-1.90;68.70
64679;BME280;51094;53.864;27.676;2023-02-05T00:06:27;100165.00;;;-2.79;68.98
64679;BME280;51094;53.864;27.676;2023-02-05T00:08:55;100282.72;;;-1.88;68.70
64679;BME280;51094;53.864;27.676;2023-02-05T00:11:22;100199.72;;;-2.55;68.14
64679;BME280;51094;53.864;27.676;2023-02-05T00:13:49;100313.31;;;-1.90;68.86
64679;BME280;51094;53.864;27.676;2023-02-05T00:16:18;100313.25;;;-1.72;69.19
64679;BME280;51094;53.864;27.676;2023-02-05T00:18:45;100301.31;;;-1.67;68.82
64679;BME280;51094;53.864;27.676;2023-02-05T00:21:13;100302.19;;;-1.69;68.32
64679;BME280;51094;53.864;27.676;2023-02-05T00:23:40;100298.00;;;-1.78;68.54
64679;BME280;51094;53.864;27.676;2023-02-05T00:26:07;100203.91;;;-2.32;68.86
64679;BME280;51094;53.864;27.676;2023-02-05T00:28:36;100300.47;;;-1.67;68.99
64679;BME280;51094;53.864;27.676;2023-02-05T00:31:09;100297.94;;;-1.70;68.72
64679;BME280;51094;53.864;27.676;2023-02-05T00:33:37;100278.47;;;-1.86;69.06
64679;BME280;51094;53.864;27.676;2023-02-05T00:36:04;100314.09;;;-1.71;69.00
64679;BME280;51094;53.864;27.676;2023-02-05T00:38:31;100309.03;;;-1.76;68.72
64679;BME280;51094;53.864;27.676;2023-02-05T00:40:58;100265.75;;;-1.97;68.96
64679;BME280;51094;53.864;27.676;2023-02-05T00:43:25;100175.09;;;-2.53;69.15
64679;BME280;51094;53.864;27.676;2023-02-05T00:45:52;100314.97;;;-1.74;69.13
64679;BME280;51094;53.864;27.676;2023-02-05T00:48:19;100253.91;;;-2.06;69.26
64679;BME280;51094;53.864;27.676;2023-02-05T00:50:50;100209.00;;;-2.31;69.06
64679;BME280;51094;53.864;27.676;2023-02-05T00:53:18;100251.38;;;-2.09;68.98
64679;BME280;51094;53.864;27.676;2023-02-05T00:55:45;100315.75;;;-1.58;69.10
64679;BME280;51094;53.864;27.676;2023-02-05T00:58:12;100320.81;;;-1.55;69.05
64679;BME280;51094;53.864;27.676;2023-02-05T01:00:39;100315.75;;;-1.64;68.73
64679;BME280;51094;53.864;27.676;2023-02-05T01:03:06;100313.22;;;-1.64;69.09
64679;BME280;51094;53.864;27.676;2023-02-05T01:05:34;100292.06;;;-1.86;68.87
64679;BME280;51094;53.864;27.676;2023-02-05T01:08:02;100319.25;;;-1.77;69.21
64679;BME280;51094;53.864;27.676;2023-02-05T01:10:29;100258.16;;;-2.14;69.43
64679;BME280;51094;53.864;27.676;2023-02-05T01:12:56;100050.63;;;-3.43;69.70
64679;BME280;51094;53.864;27.676;2023-02-05T01:15:22;100336.13;;;-1.58;69.51
64679;BME280;51094;53.864;27.676;2023-02-05T01:17:49;100290.34;;;-1.81;69.15
64679;BME280;51094;53.864;27.676;2023-02-05T01:20:16;100334.38;;;-1.45;69.45
64679;BME280;51094;53.864;27.676;2023-02-05T01:22:43;100252.16;;;-1.96;69.34
64679;BME280;51094;53.864;27.676;2023-02-05T01:25:10;100175.94;;;-2.49;68.93
64679;BME280;51094;53.864;27.676;2023-02-05T01:27:37;100171.72;;;-2.56;68.80
64679;BME280;51094;53.864;27.676;2023-02-05T01:30:05;100331.91;;;-1.59;69.22
64679;BME280;51094;53.864;27.676;2023-02-05T01:32:33;100258.16;;;-2.05;69.25
64679;BME280;51094;53.864;27.676;2023-02-05T01:35:01;100229.28;;;-2.13;69.47
64679;BME280;51094;53.864;27.676;2023-02-05T01:37:27;100297.91;;;-1.64;69.21
64679;BME280;51094;53.864;27.676;2023-02-05T01:39:55;100327.63;;;-1.52;69.37
64679;BME280;51094;53.864;27.676;2023-02-05T01:42:29;100299.63;;;-1.71;69.26
64679;BME280;51094;53.864;27.676;2023-02-05T01:47:56;100331.91;;;-1.59;69.62
64679;BME280;51094;53.864;27.676;2023-02-05T01:50:53;100338.72;;;-1.64;69.50
64679;BME280;51094;53.864;27.676;2023-02-05T01:53:24;100225.13;;;-2.33;69.67
64679;BME280;51094;53.864;27.676;2023-02-05T01:56:01;100305.69;;;-1.93;69.30
64679;BME280;51094;53.864;27.676;2023-02-05T01:58:34;100151.44;;;-3.02;69.95
64679;BME280;51094;53.864;27.676;2023-02-05T02:01:03;100298.06;;;-1.97;69.66
64679;BME280;51094;53.864;27.676;2023-02-05T02:03:30;100348.94;;;-1.67;70.12
64679;BME280;51094;53.864;27.676;2023-02-05T02:05:58;100144.66;;;-2.91;70.06
64679;BME280;51094;53.864;27.676;2023-02-05T02:08:25;100246.34;;;-2.21;69.93
64679;BME280;51094;53.864;27.676;2023-02-05T02:10:54;100132.75;;;-2.86;69.34
64679;BME280;51094;53.864;27.676;2023-02-05T02:13:22;100312.44;;;-1.80;70.32
64679;BME280;51094;53.864;27.676;2023-02-05T02:15:52;100341.25;;;-1.61;69.49
64679;BME280;51094;53.864;27.676;2023-02-05T02:18:19;100277.72;;;-2.13;69.98
64679;BME280;51094;53.864;27.676;2023-02-05T02:29:01;100361.63;;;-1.55;70.10
64679;BME280;51094;53.864;27.676;2023-02-05T02:34:14;100364.16;;;-1.49;69.88
64679;BME280;51094;53.864;27.676;2023-02-05T02:36:51;100147.19;;;-2.82;69.80
64679;BME280;51094;53.864;27.676;2023-02-05T02:39:25;100294.66;;;-1.93;69.65
64679;BME280;51094;53.864;27.676;2023-02-05T02:42:04;100304.00;;;-1.92;69.70
64679;BME280;51094;53.864;27.676;2023-02-05T02:44:36;100304.84;;;-1.92;69.53
64679;BME280;51094;53.864;27.676;2023-02-05T02:47:10;100344.75;;;-1.77;69.57
64679;BME280;51094;53.864;27.676;2023-02-05T02:49:44;100378.69;;;-1.69;69.45
64679;BME280;51094;53.864;27.676;2023-02-05T02:52:13;100396.53;;;-1.69;69.71
64679;BME280;51094;53.864;27.676;2023-02-05T02:54:46;100376.97;;;-1.67;69.55
64679;BME280;51094;53.864;27.676;2023-02-05T02:57:17;100404.16;;;-1.60;70.10
64679;BME280;51094;53.864;27.676;2023-02-05T02:59:46;100340.50;;;-1.78;69.58
64679;BME280;51094;53.864;27.676;2023-02-05T03:02:15;100245.50;;;-2.33;69.94
64679;BME280;51094;53.864;27.676;2023-02-05T03:04:51;100357.44;;;-1.70;69.36
64679;BME280;51094;53.864;27.676;2023-02-05T03:07:25;100366.00;;;-1.81;69.54
64679;BME280;51094;53.864;27.676;2023-02-05T03:12:25;100363.44;;;-1.81;69.63
64679;BME280;51094;53.864;27.676;2023-02-05T03:14:54;100332.88;;;-1.87;69.94
64679;BME280;51094;53.864;27.676;2023-02-05T03:17:23;100402.41;;;-1.43;69.31
64679;BME280;51094;53.864;27.676;2023-02-05T03:20:12;100359.13;;;-1.67;69.18
64679;BME280;51094;53.864;27.676;2023-02-05T03:22:41;100258.22;;;-2.26;69.42
64679;BME280;51094;53.864;27.676;2023-02-05T03:25:08;100256.53;;;-2.24;69.24
64679;BME280;51094;53.864;27.676;2023-02-05T03:27:36;100257.41;;;-2.39;69.41
64679;BME280;51094;53.864;27.676;2023-02-05T03:30:06;100285.41;;;-2.25;69.12
64679;BME280;51094;53.864;27.676;2023-02-05T03:35:27;100384.63;;;-1.67;69.02
64679;BME280;51094;53.864;27.676;2023-02-05T03:40:54;100231.13;;;-2.54;69.76
64679;BME280;51094;53.864;27.676;2023-02-05T03:43:47;100356.59;;;-1.73;69.55
64679;BME280;51094;53.864;27.676;2023-02-05T03:46:34;100391.38;;;-1.48;69.25
64679;BME280;51094;53.864;27.676;2023-02-05T03:49:34;100319.28;;;-1.92;69.27
64679;BME280;51094;53.864;27.676;2023-02-05T03:52:12;100382.03;;;-1.55;69.44
64679;BME280;51094;53.864;27.676;2023-02-05T03:59:54;100332.88;;;-1.89;69.89
64679;BME280;51094;53.864;27.676;2023-02-05T04:02:21;100391.41;;;-1.58;69.47
64679;BME280;51094;53.864;27.676;2023-02-05T04:04:48;100376.13;;;-1.63;69.47
64679;BME280;51094;53.864;27.676;2023-02-05T04:07:16;100310.84;;;-2.16;69.94
64679;BME280;51094;53.864;27.676;2023-02-05T04:09:44;100391.44;;;-1.66;70.16
64679;BME280;51094;53.864;27.676;2023-02-05T04:12:12;100276.09;;;-2.38;70.31
64679;BME280;51094;53.864;27.676;2023-02-05T04:14:39;100216.75;;;-2.80;69.95
64679;BME280;51094;53.864;27.676;2023-02-05T04:17:06;100229.47;;;-2.66;69.69
64679;BME280;51094;53.864;27.676;2023-02-05T04:19:33;100420.31;;;-1.58;69.59
64679;BME280;51094;53.864;27.676;2023-02-05T04:22:00;100393.13;;;-1.70;70.01
64679;BME280;51094;53.864;27.676;2023-02-05T04:24:31;100361.75;;;-1.81;70.05
64679;BME280;51094;53.864;27.676;2023-02-05T04:26:57;100424.50;;;-1.40;69.79
64679;BME280;51094;53.864;27.676;2023-02-05T04:29:24;100445.81;;;-1.53;69.16
64679;BME280;51094;53.864;27.676;2023-02-05T04:31:51;100426.28;;;-1.68;70.03
64679;BME280;51094;53.864;27.676;2023-02-05T04:34:18;100388.97;;;-1.99;69.83
64679;BME280;51094;53.864;27.676;2023-02-05T04:36:46;100426.28;;;-1.63;69.99
64679;BME280;51094;53.864;27.676;2023-02-05T04:39:13;100202.34;;;-3.02;69.89
64679;BME280;51094;53.864;27.676;2023-02-05T04:41:40;100429.66;;;-1.61;70.12
64679;BME280;51094;53.864;27.676;2023-02-05T04:44:07;100363.47;;;-1.93;69.83
64679;BME280;51094;53.864;27.676;2023-02-05T04:46:33;100434.78;;;-1.60;69.90
64679;BME280;51094;53.864;27.676;2023-02-05T04:49:00;100337.16;;;-2.08;70.07
64679;BME280;51094;53.864;27.676;2023-02-05T04:51:27;100246.44;;;-2.65;69.89
64679;BME280;51094;53.864;27.676;2023-02-05T04:53:54;100420.31;;;-1.58;69.85
64679;BME280;51094;53.864;27.676;2023-02-05T04:56:20;100435.69;;;-1.79;69.48
64679;BME280;51094;53.864;27.676;2023-02-05T04:58:47;100429.69;;;-1.72;70.27
64679;BME280;51094;53.864;27.676;2023-02-05T05:01:18;100436.50;;;-1.71;70.31
64679;BME280;51094;53.864;27.676;2023-02-05T05:03:45;100382.19;;;-2.01;70.86
64679;BME280;51094;53.864;27.676;2023-02-05T05:06:13;100445.00;;;-1.72;70.53
64679;BME280;51094;53.864;27.676;2023-02-05T05:08:40;100441.59;;;-1.67;70.76
64679;BME280;51094;53.864;27.676;2023-02-05T05:11:09;100291.38;;;-2.56;70.40
64679;BME280;51094;53.864;27.676;2023-02-05T05:13:37;100382.19;;;-2.07;70.48
64679;BME280;51094;53.864;27.676;2023-02-05T05:16:05;100384.72;;;-2.01;70.65
64679;BME280;51094;53.864;27.676;2023-02-05T05:18:32;100443.28;;;-1.70;70.72
64679;BME280;51094;53.864;27.676;2023-02-05T05:21:00;100337.22;;;-2.30;70.42
64679;BME280;51094;53.864;27.676;2023-02-05T05:23:27;100413.59;;;-1.89;70.40
64679;BME280;51094;53.864;27.676;2023-02-05T05:25:54;100400.88;;;-2.15;70.96
64679;BME280;51094;53.864;27.676;2023-02-05T05:28:21;100447.56;;;-1.75;70.91
64679;BME280;51094;53.864;27.676;2023-02-05T05:30:48;100446.69;;;-1.71;70.57
64679;BME280;51094;53.864;27.676;2023-02-05T05:33:15;100466.25;;;-1.70;70.65
64679;BME280;51094;53.864;27.676;2023-02-05T05:35:44;100407.72;;;-2.25;71.02
64679;BME280;51094;53.864;27.676;2023-02-05T05:38:11;100467.09;;;-1.71;71.19
64679;BME280;51094;53.864;27.676;2023-02-05T05:40:38;100500.25;;;-1.71;71.22
64679;BME280;51094;53.864;27.676;2023-02-05T05:43:24;100366.09;;;-2.44;70.89
64679;BME280;51094;53.864;27.676;2023-02-05T05:46:09;100444.19;;;-1.88;70.96
64679;BME280;51094;53.864;27.676;2023-02-05T05:48:36;100391.53;;;-2.16;70.59
64679;BME280;51094;53.864;27.676;2023-02-05T05:51:03;100483.22;;;-1.55;71.22
64679;BME280;51094;53.864;27.676;2023-02-05T05:53:31;100399.19;;;-2.07;70.35
64679;BME280;51094;53.864;27.676;2023-02-05T05:55:58;100335.53;;;-2.57;70.36
64679;BME280;51094;53.864;27.676;2023-02-05T05:58:25;100457.78;;;-1.75;70.78
64679;BME280;51094;53.864;27.676;2023-02-05T06:00:53;100421.25;;;-2.00;70.72
64679;BME280;51094;53.864;27.676;2023-02-05T06:03:20;100495.94;;;-1.36;69.85
64679;BME280;51094;53.864;27.676;2023-02-05T06:05:47;100499.38;;;-1.49;69.64
64679;BME280;51094;53.864;27.676;2023-02-05T06:08:14;100467.97;;;-1.74;69.99
64679;BME280;51094;53.864;27.676;2023-02-05T06:10:42;100500.25;;;-1.65;69.93
64679;BME280;51094;53.864;27.676;2023-02-05T06:13:09;100499.44;;;-1.76;69.70
64679;BME280;51094;53.864;27.676;2023-02-05T06:15:36;100456.09;;;-2.11;69.87
64679;BME280;51094;53.864;27.676;2023-02-05T06:18:03;100399.19;;;-2.48;69.80
64679;BME280;51094;53.864;27.676;2023-02-05T06:20:30;100458.63;;;-2.04;69.53
64679;BME280;51094;53.864;27.676;2023-02-05T06:22:57;100507.91;;;-1.68;69.94
64679;BME280;51094;53.864;27.676;2023-02-05T06:25:24;100465.44;;;-2.09;70.01
64679;BME280;51094;53.864;27.676;2023-02-05T06:27:50;100514.69;;;-1.55;70.46
64679;BME280;51094;53.864;27.676;2023-02-05T06:30:20;100519.78;;;-1.46;69.56
64679;BME280;51094;53.864;27.676;2023-02-05T06:32:51;100409.41;;;-2.22;69.23
64679;BME280;51094;53.864;27.676;2023-02-05T06:35:18;100377.97;;;-2.52;68.59
64679;BME280;51094;53.864;27.676;2023-02-05T06:37:45;100555.50;;;-1.58;69.34
64679;BME280;51094;53.864;27.676;2023-02-05T06:40:14;100527.44;;;-1.59;69.28
64679;BME280;51094;53.864;27.676;2023-02-05T06:42:44;100455.25;;;-2.03;69.31
64679;BME280;51094;53.864;27.676;2023-02-05T06:45:11;100537.66;;;-1.62;68.76
64679;BME280;51094;53.864;27.676;2023-02-05T06:47:38;100389.88;;;-2.60;68.56
64679;BME280;51094;53.864;27.676;2023-02-05T06:50:05;100372.03;;;-2.71;68.84
64679;BME280;51094;53.864;27.676;2023-02-05T06:52:32;100548.72;;;-1.74;68.89
64679;BME280;51094;53.864;27.676;2023-02-05T06:54:59;100491.78;;;-1.96;68.94
64679;BME280;51094;53.864;27.676;2023-02-05T06:57:26;100360.16;;;-2.70;68.90
64679;BME280;51094;53.864;27.676;2023-02-05T06:59:52;100410.25;;;-2.36;68.79
64679;BME280;51094;53.864;27.676;2023-02-05T07:02:19;100563.13;;;-1.37;68.62
64679;BME280;51094;53.864;27.676;2023-02-05T07:04:46;100536.78;;;-1.48;68.84
64679;BME280;51094;53.864;27.676;2023-02-05T07:07:13;100428.94;;;-2.38;67.90
64679;BME280;51094;53.864;27.676;2023-02-05T07:09:42;100406.84;;;-2.62;68.22
64679;BME280;51094;53.864;27.676;2023-02-05T07:12:09;100571.66;;;-1.36;67.78
64679;BME280;51094;53.864;27.676;2023-02-05T07:14:37;100580.16;;;-1.37;68.31
64679;BME280;51094;53.864;27.676;2023-02-05T07:17:04;100527.44;;;-1.58;68.07
64679;BME280;51094;53.864;27.676;2023-02-05T07:19:31;100619.25;;;-1.21;68.01
64679;BME280;51094;53.864;27.676;2023-02-05T07:21:58;100533.38;;;-1.47;68.72
64679;BME280;51094;53.864;27.676;2023-02-05T07:24:25;100550.34;;;-1.27;68.01
64679;BME280;51094;53.864;27.676;2023-02-05T07:26:52;100601.34;;;-1.09;67.45
64679;BME280;51094;53.864;27.676;2023-02-05T07:29:19;100602.22;;;-1.15;67.36
64679;BME280;51094;53.864;27.676;2023-02-05T07:31:50;100435.69;;;-2.08;67.65
64679;BME280;51094;53.864;27.676;2023-02-05T07:34:18;100597.97;;;-1.11;67.67
64679;BME280;51094;53.864;27.676;2023-02-05T07:36:48;100600.50;;;-1.01;67.84
64679;BME280;51094;53.864;27.676;2023-02-05T07:39:15;100600.47;;;-0.94;67.75
64679;BME280;51094;53.864;27.676;2023-02-05T07:41:42;100589.41;;;-0.92;67.62
64679;BME280;51094;53.864;27.676;2023-02-05T07:44:19;100601.25;;;-0.70;67.55
64679;BME280;51094;53.864;27.676;2023-02-05T07:46:46;100605.50;;;-0.70;67.07
64679;BME280;51094;53.864;27.676;2023-02-05T07:49:15;100548.63;;;-1.15;66.98
64679;BME280;51094;53.864;27.676;2023-02-05T07:51:42;100612.31;;;-0.75;67.14
64679;BME280;51094;53.864;27.676;2023-02-05T07:54:10;100490.03;;;-1.60;66.27
64679;BME280;51094;53.864;27.676;2023-02-05T07:56:38;100601.38;;;-1.14;66.72
64679;BME280;51094;53.864;27.676;2023-02-05T07:59:05;100624.25;;;-0.80;67.37
64679;BME280;51094;53.864;27.676;2023-02-05T08:01:33;100625.09;;;-0.81;66.80
64679;BME280;51094;53.864;27.676;2023-02-05T08:04:00;100560.53;;;-1.21;67.00
64679;BME280;51094;53.864;27.676;2023-02-05T08:06:27;100631.06;;;-0.85;67.08
64679;BME280;51094;53.864;27.676;2023-02-05T08:08:53;100630.19;;;-0.74;66.64
64679;BME280;51094;53.864;27.676;2023-02-05T08:11:21;100632.75;;;-0.72;66.74
64679;BME280;51094;53.864;27.676;2023-02-05T08:13:48;100614.91;;;-0.83;66.85
64679;BME280;51094;53.864;27.676;2023-02-05T08:16:18;100552.03;;;-1.28;66.26
64679;BME280;51094;53.864;27.676;2023-02-05T08:18:49;100657.44;;;-0.76;66.58
64679;BME280;51094;53.864;27.676;2023-02-05T08:21:19;100560.59;;;-1.43;66.60
64679;BME280;51094;53.864;27.676;2023-02-05T08:23:47;100657.47;;;-0.82;67.11
64679;BME280;51094;53.864;27.676;2023-02-05T08:26:16;100568.25;;;-1.35;67.17
64679;BME280;51094;53.864;27.676;2023-02-05T08:28:43;100649.75;;;-0.59;66.89
64679;BME280;51094;53.864;27.676;2023-02-05T08:31:16;100540.19;;;-1.37;66.65
64679;BME280;51094;53.864;27.676;2023-02-05T08:33:43;100650.63;;;-0.72;66.14
64679;BME280;51094;53.864;27.676;2023-02-05T08:36:12;100519.78;;;-1.61;66.48
64679;BME280;51094;53.864;27.676;2023-02-05T08:38:39;100623.47;;;-0.96;66.41
64679;BME280;51094;53.864;27.676;2023-02-05T08:41:07;100672.78;;;-0.76;66.58
64679;BME280;51094;53.864;27.676;2023-02-05T08:43:45;100679.56;;;-0.69;66.49
64679;BME280;51094;53.864;27.676;2023-02-05T08:46:14;100606.47;;;-1.24;66.17
64679;BME280;51094;53.864;27.676;2023-02-05T08:48:43;100688.94;;;-0.71;66.55
64679;BME280;51094;53.864;27.676;2023-02-05T08:51:10;100637.09;;;-1.00;66.31
64679;BME280;51094;53.864;27.676;2023-02-05T08:53:38;100695.75;;;-0.67;66.50
64679;BME280;51094;53.864;27.676;2023-02-05T08:56:08;100623.50;;;-1.25;66.10
64679;BME280;51094;53.864;27.676;2023-02-05T08:58:37;100624.31;;;-0.97;66.03
64679;BME280;51094;53.864;27.676;2023-02-05T09:01:07;100597.09;;;-1.09;65.83
64679;BME280;51094;53.864;27.676;2023-02-05T09:03:35;100608.19;;;-1.20;66.00
64679;BME280;51094;53.864;27.676;2023-02-05T09:06:12;100674.47;;;-0.69;65.83
64679;BME280;51094;53.864;27.676;2023-02-05T09:08:39;100393.25;;;-2.37;65.53
64679;BME280;51094;53.864;27.676;2023-02-05T09:11:06;100656.59;;;-0.79;65.29
64679;BME280;51094;53.864;27.676;2023-02-05T09:13:33;100613.28;;;-1.11;65.87
64679;BME280;51094;53.864;27.676;2023-02-05T09:16:01;100632.81;;;-0.89;65.88
64679;BME280;51094;53.864;27.676;2023-02-05T09:18:28;100695.72;;;-0.53;65.30
64679;BME280;51094;53.864;27.676;2023-02-05T09:20:55;100531.69;;;-1.51;65.33
64679;BME280;51094;53.864;27.676;2023-02-05T09:23:22;100641.28;;;-0.81;66.00
64679;BME280;51094;53.864;27.676;2023-02-05T09:25:49;100689.63;;;-0.21;65.76
64679;BME280;51094;53.864;27.676;2023-02-05T09:28:16;100698.16;;;-0.24;65.35
64679;BME280;51094;53.864;27.676;2023-02-05T09:30:44;100634.38;;;-0.45;65.56
64679;BME280;51094;53.864;27.676;2023-02-05T09:33:12;100657.22;;;-0.15;64.96
64679;BME280;51094;53.864;27.676;2023-02-05T09:35:40;100613.97;;;-0.53;63.55
64679;BME280;51094;53.864;27.676;2023-02-05T09:38:08;100596.97;;;-0.66;64.26
64679;BME280;51094;53.864;27.676;2023-02-05T09:46:00;100689.63;;;-0.20;64.11
64679;BME280;51094;53.864;27.676;2023-02-05T09:51:09;100637.72;;;-0.36;64.41
64679;BME280;51094;53.864;27.676;2023-02-05T09:53:41;100741.53;;;0.00;64.09
64679;BME280;51094;53.864;27.676;2023-02-05T09:56:11;100527.22;;;-0.86;63.55
64679;BME280;51094;53.864;27.676;2023-02-05T09:58:43;100618.19;;;-0.46;63.59
64679;BME280;51094;53.864;27.676;2023-02-05T10:01:39;100694.63;;;0.05;62.92
64679;BME280;51094;53.864;27.676;2023-02-05T10:04:03;100588.44;;;-0.62;63.25
64679;BME280;51094;53.864;27.676;2023-02-05T10:12:33;100700.63;;;-0.01;62.71
64679;BME280;51094;53.864;27.676;2023-02-05T10:18:51;100709.09;;;0.10;63.11
64679;BME280;51094;53.864;27.676;2023-02-05T10:24:19;100715.03;;;0.14;63.00
64679;BME280;51094;53.864;27.676;2023-02-05T10:26:49;100570.59;;;-0.71;63.26
64679;BME280;51094;53.864;27.676;2023-02-05T10:34:58;100662.50;;;-0.51;63.39
64679;BME280;51094;53.864;27.676;2023-02-05T10:37:50;100751.84;;;-0.18;63.24
64679;BME280;51094;53.864;27.676;2023-02-05T10:40:30;100698.19;;;-0.30;63.58
64679;BME280;51094;53.864;27.676;2023-02-05T10:43:16;100718.66;;;-0.39;63.45
64679;BME280;51094;53.864;27.676;2023-02-05T10:45:45;100733.91;;;-0.09;64.17
64679;BME280;51094;53.864;27.676;2023-02-05T10:51:03;100714.34;;;-0.17;64.44
64679;BME280;51094;53.864;27.676;2023-02-05T10:53:31;100658.25;;;-0.57;64.04
64679;BME280;51094;53.864;27.676;2023-02-05T10:56:00;100765.44;;;-0.08;64.00
64679;BME280;51094;53.864;27.676;2023-02-05T10:58:51;100744.13;;;-0.06;64.37
64679;BME280;51094;53.864;27.676;2023-02-05T11:01:30;100648.94;;;-0.82;64.24
64679;BME280;51094;53.864;27.676;2023-02-05T11:04:34;100717.84;;;-0.44;64.25
64679;BME280;51094;53.864;27.676;2023-02-05T11:07:10;100644.75;;;-0.97;64.58
64679;BME280;51094;53.864;27.676;2023-02-05T11:09:38;100725.47;;;-0.37;64.58
64679;BME280;51094;53.864;27.676;2023-02-05T11:12:16;100692.41;;;-0.87;64.48
64679;BME280;51094;53.864;27.676;2023-02-05T11:15:00;100714.47;;;-0.68;65.06
64679;BME280;51094;53.864;27.676;2023-02-05T11:17:35;100738.25;;;-0.40;65.70
64679;BME280;51094;53.864;27.676;2023-02-05T11:20:05;100757.84;;;-0.37;65.29
64679;BME280;51094;53.864;27.676;2023-02-05T11:22:35;100687.31;;;-0.97;65.22
64679;BME280;51094;53.864;27.676;2023-02-05T11:25:20;100779.19;;;-0.44;65.72
64679;BME280;51094;53.864;27.676;2023-02-05T11:30:31;100749.28;;;-0.24;65.99
64679;BME280;51094;53.864;27.676;2023-02-05T11:33:26;100625.97;;;-0.85;65.97
64679;BME280;51094;53.864;27.676;2023-02-05T11:38:32;100757.78;;;-0.13;65.49
64679;BME280;51094;53.864;27.676;2023-02-05T11:41:05;100736.53;;;-0.33;65.89
64679;BME280;51094;53.864;27.676;2023-02-05T11:43:35;100717.84;;;-0.46;65.98
64679;BME280;51094;53.864;27.676;2023-02-05T11:46:07;100608.19;;;-1.23;65.86
64679;BME280;51094;53.864;27.676;2023-02-05T11:49:04;100705.03;;;-0.41;65.78
64679;BME280;51094;53.864;27.676;2023-02-05T11:54:22;100759.50;;;-0.21;65.61
64679;BME280;51094;53.864;27.676;2023-02-05T11:57:31;100756.09;;;-0.15;65.60
64679;BME280;51094;53.864;27.676;2023-02-05T12:00:20;100759.41;;;0.02;66.00
64679;BME280;51094;53.864;27.676;2023-02-05T12:03:01;100765.44;;;-0.04;65.20
64679;BME280;51094;53.864;27.676;2023-02-05T12:05:33;100714.47;;;-0.51;65.44
64679;BME280;51094;53.864;27.676;2023-02-05T12:08:28;100694.88;;;-0.59;65.58
64679;BME280;51094;53.864;27.676;2023-02-05T12:11:17;100650.69;;;-0.99;65.66
64679;BME280;51094;53.864;27.676;2023-02-05T12:14:15;100767.16;;;-0.15;65.84
64679;BME280;51094;53.864;27.676;2023-02-05T12:19:33;100773.91;;;0.02;65.88
64679;BME280;51094;53.864;27.676;2023-02-05T12:23:04;100773.91;;;0.03;65.53
64679;BME280;51094;53.864;27.676;2023-02-05T12:25:25;100780.69;;;0.12;65.77
64679;BME280;51094;53.864;27.676;2023-02-05T12:28:24;100776.44;;;0.14;65.52
64679;BME280;51094;53.864;27.676;2023-02-05T12:45:27;100773.13;;;-0.13;65.51
64679;BME280;51094;53.864;27.676;2023-02-05T12:55:58;100777.41;;;-0.27;66.00
64679;BME280;51094;53.864;27.676;2023-02-05T12:58:35;100785.91;;;-0.13;65.95
64679;BME280;51094;53.864;27.676;2023-02-05T13:01:06;100801.25;;;-0.05;65.76
64679;BME280;51094;53.864;27.676;2023-02-05T13:03:38;100753.56;;;-0.24;64.97
64679;BME280;51094;53.864;27.676;2023-02-05T13:06:08;100780.81;;;-0.19;65.25
64679;BME280;51094;53.864;27.676;2023-02-05T13:08:40;100794.47;;;-0.34;64.68
64679;BME280;51094;53.864;27.676;2023-02-05T13:11:34;100786.81;;;-0.30;65.34
64679;BME280;51094;53.864;27.676;2023-02-05T13:14:22;100764.63;;;-0.27;65.67
64679;BME280;51094;53.864;27.676;2023-02-05T13:17:02;100779.19;;;-0.44;65.09
64679;BME280;51094;53.864;27.676;2023-02-05T13:19:41;100775.72;;;-0.22;65.35
64679;BME280;51094;53.864;27.676;2023-02-05T13:22:18;100717.03;;;-0.66;65.02
64679;BME280;51094;53.864;27.676;2023-02-05T13:25:13;100722.16;;;-0.80;65.35
64679;BME280;51094;53.864;27.676;2023-02-05T13:31:41;100792.75;;;-0.28;65.22
64679;BME280;51094;53.864;27.676;2023-02-05T13:34:12;100774.88;;;-0.42;65.29
64679;BME280;51094;53.864;27.676;2023-02-05T13:42:58;100792.75;;;-0.28;65.31
64679;BME280;51094;53.864;27.676;2023-02-05T13:49:01;100769.81;;;-0.50;64.67
64679;BME280;51094;53.864;27.676;2023-02-05T13:59:56;100803.84;;;-0.40;64.77
64679;BME280;51094;53.864;27.676;2023-02-05T14:02:33;100677.94;;;-1.29;64.94
64679;BME280;51094;53.864;27.676;2023-02-05T14:05:03;100790.25;;;-0.50;65.08
64679;BME280;51094;53.864;27.676;2023-02-05T14:07:37;100822.59;;;-0.37;64.79
64679;BME280;51094;53.864;27.676;2023-02-05T14:10:23;100807.25;;;-0.41;64.83
64679;BME280;51094;53.864;27.676;2023-02-05T14:12:51;100790.28;;;-0.67;64.51
64679;BME280;51094;53.864;27.676;2023-02-05T14:22:55;100803.91;;;-0.87;64.90
64679;BME280;51094;53.864;27.676;2023-02-05T14:30:44;100835.41;;;-0.87;65.17
64679;BME280;51094;53.864;27.676;2023-02-05T14:33:44;100834.53;;;-0.80;65.22
64679;BME280;51094;53.864;27.676;2023-02-05T14:38:44;100837.94;;;-0.81;65.73
64679;BME280;51094;53.864;27.676;2023-02-05T14:41:21;100715.38;;;-1.45;65.23
64679;BME280;51094;53.864;27.676;2023-02-05T14:43:58;100783.47;;;-1.10;64.94
64679;BME280;51094;53.864;27.676;2023-02-05T14:49:00;100830.19;;;-1.40;65.14
64679;BME280;51094;53.864;27.676;2023-02-05T14:51:35;100855.78;;;-1.14;65.64
64679;BME280;51094;53.864;27.676;2023-02-05T14:54:15;100829.34;;;-1.41;65.38
64679;BME280;51094;53.864;27.676;2023-02-05T14:56:50;100860.00;;;-1.22;65.78
64679;BME280;51094;53.864;27.676;2023-02-05T14:59:24;100758.69;;;-1.74;65.80
64679;BME280;51094;53.864;27.676;2023-02-05T15:01:56;100831.09;;;-1.21;65.54
64679;BME280;51094;53.864;27.676;2023-02-05T15:07:09;100873.66;;;-1.10;65.16
64679;BME280;51094;53.864;27.676;2023-02-05T15:09:40;100878.75;;;-1.11;65.45
64679;BME280;51094;53.864;27.676;2023-02-05T15:15:28;100888.13;;;-1.13;64.81
64679;BME280;51094;53.864;27.676;2023-02-05T15:18:04;100858.31;;;-1.31;65.32